sensor_id;sensor_type;location;lat;lon;timestamp;temperature;humidity
35085;SHT85;21267;51.032;6.998;2022-10-13T00:01:36;9.87;93.74
35085;SHT85;21267;51.032;6.998;2022-10-13T00:04:03;9.88;93.74
35085;SHT85;21267;51.032;6.998;2022-10-13T00:06:29;10.01;93.54
35085;SHT85;21267;51.032;6.998;2022-10-13T00:08:57;9.94;93.59
35085;SHT85;21267;51.032;6.998;2022-10-13T00:11:28;9.98;93.61
35085;SHT85;21267;51.032;6.998;2022-10-13T00:13:58;9.90;93.72
35085;SHT85;21267;51.032;6.998;2022-10-13T00:16:26;9.94;93.75
35085;SHT85;21267;51.032;6.998;2022-10-13T00:18:52;9.94;93.89
35085;SHT85;21267;51.032;6.998;2022-10-13T00:21:22;9.98;93.72
35085;SHT85;21267;51.032;6.998;2022-10-13T00:23:50;10.01;93.49
35085;SHT85;21267;51.032;6.998;2022-10-13T00:26:17;9.94;93.69
35085;SHT85;21267;51.032;6.998;2022-10-13T00:28:44;9.95;93.84
35085;SHT85;21267;51.032;6.998;2022-10-13T00:31:24;9.99;93.78
35085;SHT85;21267;51.032;6.998;2022-10-13T00:33:51;10.06;93.57
35085;SHT85;21267;51.032;6.998;2022-10-13T00:36:21;10.01;93.74
35085;SHT85;21267;51.032;6.998;2022-10-13T00:38:49;9.98;93.90
35085;SHT85;21267;51.032;6.998;2022-10-13T00:41:16;9.97;93.96
35085;SHT85;21267;51.032;6.998;2022-10-13T00:44:02;9.95;94.08
35085;SHT85;21267;51.032;6.998;2022-10-13T00:46:35;9.91;94.18
35085;SHT85;21267;51.032;6.998;2022-10-13T00:49:10;9.92;94.13
35085;SHT85;21267;51.032;6.998;2022-10-13T00:51:44;9.92;94.21
35085;SHT85;21267;51.032;6.998;2022-10-13T00:54:17;9.91;94.30
35085;SHT85;21267;51.032;6.998;2022-10-13T00:56:46;9.87;94.36
35085;SHT85;21267;51.032;6.998;2022-10-13T00:59:17;9.90;94.35
35085;SHT85;21267;51.032;6.998;2022-10-13T01:01:50;9.92;94.28
35085;SHT85;21267;51.032;6.998;2022-10-13T01:04:19;9.94;94.35
35085;SHT85;21267;51.032;6.998;2022-10-13T01:06:48;9.91;94.29
35085;SHT85;21267;51.032;6.998;2022-10-13T01:09:15;9.91;94.41
35085;SHT85;21267;51.032;6.998;2022-10-13T01:17:21;9.95;94.54
35085;SHT85;21267;51.032;6.998;2022-10-13T01:20:11;9.97;94.61
35085;SHT85;21267;51.032;6.998;2022-10-13T01:36:52;9.97;94.59
35085;SHT85;21267;51.032;6.998;2022-10-13T01:42:15;10.03;94.47
35085;SHT85;21267;51.032;6.998;2022-10-13T01:47:20;10.03;94.43
35085;SHT85;21267;51.032;6.998;2022-10-13T01:49:58;10.03;94.50
35085;SHT85;21267;51.032;6.998;2022-10-13T01:52:39;9.99;94.57
35085;SHT85;21267;51.032;6.998;2022-10-13T01:55:14;10.02;94.57
35085;SHT85;21267;51.032;6.998;2022-10-13T01:57:44;10.03;94.45
35085;SHT85;21267;51.032;6.998;2022-10-13T02:00:16;9.98;94.41
35085;SHT85;21267;51.032;6.998;2022-10-13T02:03:00;9.98;94.53
35085;SHT85;21267;51.032;6.998;2022-10-13T02:05:45;10.01;94.55
35085;SHT85;21267;51.032;6.998;2022-10-13T02:08:45;9.98;94.49
35085;SHT85;21267;51.032;6.998;2022-10-13T02:11:19;9.95;94.62
35085;SHT85;21267;51.032;6.998;2022-10-13T02:14:02;9.99;94.58
35085;SHT85;21267;51.032;6.998;2022-10-13T02:16:35;9.98;94.63
35085;SHT85;21267;51.032;6.998;2022-10-13T02:19:04;9.97;94.68
35085;SHT85;21267;51.032;6.998;2022-10-13T02:21:32;9.91;94.75
35085;SHT85;21267;51.032;6.998;2022-10-13T02:24:02;9.95;94.72
35085;SHT85;21267;51.032;6.998;2022-10-13T02:26:30;9.91;94.76
35085;SHT85;21267;51.032;6.998;2022-10-13T02:28:57;9.92;94.81
35085;SHT85;21267;51.032;6.998;2022-10-13T02:31:25;9.88;94.89
35085;SHT85;21267;51.032;6.998;2022-10-13T02:33:51;9.95;94.88
35085;SHT85;21267;51.032;6.998;2022-10-13T02:36:18;9.99;94.67
35085;SHT85;21267;51.032;6.998;2022-10-13T02:38:44;10.03;94.57
35085;SHT85;21267;51.032;6.998;2022-10-13T02:41:15;10.05;94.53
35085;SHT85;21267;51.032;6.998;2022-10-13T02:43:42;10.05;94.51
35085;SHT85;21267;51.032;6.998;2022-10-13T02:46:08;10.03;94.53
35085;SHT85;21267;51.032;6.998;2022-10-13T02:48:35;10.02;94.59
35085;SHT85;21267;51.032;6.998;2022-10-13T02:51:02;10.02;94.57
35085;SHT85;21267;51.032;6.998;2022-10-13T02:53:29;10.02;94.57
35085;SHT85;21267;51.032;6.998;2022-10-13T02:55:55;10.05;94.56
35085;SHT85;21267;51.032;6.998;2022-10-13T02:58:22;10.09;94.62
35085;SHT85;21267;51.032;6.998;2022-10-13T03:00:48;10.08;94.51
35085;SHT85;21267;51.032;6.998;2022-10-13T03:03:15;10.08;94.55
35085;SHT85;21267;51.032;6.998;2022-10-13T03:05:42;10.08;94.52
35085;SHT85;21267;51.032;6.998;2022-10-13T03:08:09;10.11;94.45
35085;SHT85;21267;51.032;6.998;2022-10-13T03:10:36;10.13;94.54
35085;SHT85;21267;51.032;6.998;2022-10-13T03:13:02;10.09;94.58
35085;SHT85;21267;51.032;6.998;2022-10-13T03:15:29;10.13;94.58
35085;SHT85;21267;51.032;6.998;2022-10-13T03:17:55;10.12;94.52
35085;SHT85;21267;51.032;6.998;2022-10-13T03:20:22;10.19;94.54
35085;SHT85;21267;51.032;6.998;2022-10-13T03:22:52;10.18;94.54
35085;SHT85;21267;51.032;6.998;2022-10-13T03:25:19;10.21;94.48
35085;SHT85;21267;51.032;6.998;2022-10-13T03:27:45;10.25;94.28
35085;SHT85;21267;51.032;6.998;2022-10-13T03:30:12;10.22;94.40
35085;SHT85;21267;51.032;6.998;2022-10-13T03:32:39;10.28;94.26
35085;SHT85;21267;51.032;6.998;2022-10-13T03:35:06;10.28;94.20
35085;SHT85;21267;51.032;6.998;2022-10-13T03:37:33;10.34;94.04
35085;SHT85;21267;51.032;6.998;2022-10-13T03:39:59;10.36;94.01
35085;SHT85;21267;51.032;6.998;2022-10-13T03:42:26;10.33;94.04
35085;SHT85;21267;51.032;6.998;2022-10-13T03:44:52;10.36;93.96
35085;SHT85;21267;51.032;6.998;2022-10-13T03:47:22;10.40;93.96
35085;SHT85;21267;51.032;6.998;2022-10-13T03:49:48;10.42;93.82
35085;SHT85;21267;51.032;6.998;2022-10-13T03:52:16;10.39;93.77
35085;SHT85;21267;51.032;6.998;2022-10-13T03:54:44;10.42;93.68
35085;SHT85;21267;51.032;6.998;2022-10-13T03:57:11;10.53;93.51
35085;SHT85;21267;51.032;6.998;2022-10-13T03:59:40;10.56;93.36
35085;SHT85;21267;51.032;6.998;2022-10-13T04:02:07;10.55;93.33
35085;SHT85;21267;51.032;6.998;2022-10-13T04:04:34;10.60;93.22
35085;SHT85;21267;51.032;6.998;2022-10-13T04:07:02;10.61;93.12
35085;SHT85;21267;51.032;6.998;2022-10-13T04:09:29;10.64;93.03
35085;SHT85;21267;51.032;6.998;2022-10-13T04:11:55;10.76;92.71
35085;SHT85;21267;51.032;6.998;2022-10-13T04:14:23;10.67;92.78
35085;SHT85;21267;51.032;6.998;2022-10-13T04:16:49;10.73;92.69
35085;SHT85;21267;51.032;6.998;2022-10-13T04:19:17;10.77;92.72
35085;SHT85;21267;51.032;6.998;2022-10-13T04:21:44;10.81;92.62
35085;SHT85;21267;51.032;6.998;2022-10-13T04:24:11;10.80;92.69
35085;SHT85;21267;51.032;6.998;2022-10-13T04:26:38;10.80;92.60
35085;SHT85;21267;51.032;6.998;2022-10-13T04:29:07;10.74;92.75
35085;SHT85;21267;51.032;6.998;2022-10-13T04:31:34;10.74;92.87
35085;SHT85;21267;51.032;6.998;2022-10-13T04:34:00;10.77;92.87
35085;SHT85;21267;51.032;6.998;2022-10-13T04:36:27;10.73;92.81
35085;SHT85;21267;51.032;6.998;2022-10-13T04:38:53;10.64;92.98
35085;SHT85;21267;51.032;6.998;2022-10-13T04:41:23;10.60;93.10
35085;SHT85;21267;51.032;6.998;2022-10-13T04:43:51;10.59;93.20
35085;SHT85;21267;51.032;6.998;2022-10-13T04:46:23;10.59;93.20
35085;SHT85;21267;51.032;6.998;2022-10-13T04:48:50;10.60;93.15
35085;SHT85;21267;51.032;6.998;2022-10-13T04:51:19;10.52;93.18
35085;SHT85;21267;51.032;6.998;2022-10-13T04:53:46;10.59;93.18
35085;SHT85;21267;51.032;6.998;2022-10-13T04:56:15;10.55;93.29
35085;SHT85;21267;51.032;6.998;2022-10-13T04:58:43;10.61;93.19
35085;SHT85;21267;51.032;6.998;2022-10-13T05:01:13;10.61;93.09
35085;SHT85;21267;51.032;6.998;2022-10-13T05:03:53;10.61;92.94
35085;SHT85;21267;51.032;6.998;2022-10-13T05:06:22;10.60;93.02
35085;SHT85;21267;51.032;6.998;2022-10-13T05:08:50;10.61;92.92
35085;SHT85;21267;51.032;6.998;2022-10-13T05:11:17;10.61;93.04
35085;SHT85;21267;51.032;6.998;2022-10-13T05:13:46;10.57;93.07
35085;SHT85;21267;51.032;6.998;2022-10-13T05:16:16;10.59;92.99
35085;SHT85;21267;51.032;6.998;2022-10-13T05:18:44;10.60;92.95
35085;SHT85;21267;51.032;6.998;2022-10-13T05:21:11;10.59;92.94
35085;SHT85;21267;51.032;6.998;2022-10-13T05:23:40;10.61;92.78
35085;SHT85;21267;51.032;6.998;2022-10-13T05:26:09;10.61;92.84
35085;SHT85;21267;51.032;6.998;2022-10-13T05:28:36;10.71;92.74
35085;SHT85;21267;51.032;6.998;2022-10-13T05:31:18;10.69;92.54
35085;SHT85;21267;51.032;6.998;2022-10-13T05:33:45;10.76;92.52
35085;SHT85;21267;51.032;6.998;2022-10-13T05:36:15;10.77;92.52
35085;SHT85;21267;51.032;6.998;2022-10-13T05:38:42;10.73;92.52
35085;SHT85;21267;51.032;6.998;2022-10-13T05:41:11;10.76;92.61
35085;SHT85;21267;51.032;6.998;2022-10-13T05:43:39;10.77;92.57
35085;SHT85;21267;51.032;6.998;2022-10-13T05:46:06;10.74;92.50
35085;SHT85;21267;51.032;6.998;2022-10-13T05:48:34;10.70;92.70
35085;SHT85;21267;51.032;6.998;2022-10-13T05:51:06;10.67;92.98
35085;SHT85;21267;51.032;6.998;2022-10-13T05:53:36;10.70;92.33
35085;SHT85;21267;51.032;6.998;2022-10-13T05:56:07;10.70;92.42
35085;SHT85;21267;51.032;6.998;2022-10-13T05:58:43;10.64;92.54
35085;SHT85;21267;51.032;6.998;2022-10-13T06:01:14;10.67;92.46
35085;SHT85;21267;51.032;6.998;2022-10-13T06:03:43;10.63;92.53
35085;SHT85;21267;51.032;6.998;2022-10-13T06:06:10;10.67;92.35
35085;SHT85;21267;51.032;6.998;2022-10-13T06:08:37;10.70;92.40
35085;SHT85;21267;51.032;6.998;2022-10-13T06:11:04;10.69;92.26
35085;SHT85;21267;51.032;6.998;2022-10-13T06:13:30;10.69;92.26
35085;SHT85;21267;51.032;6.998;2022-10-13T06:15:57;10.70;92.22
35085;SHT85;21267;51.032;6.998;2022-10-13T06:18:23;10.74;92.03
35085;SHT85;21267;51.032;6.998;2022-10-13T06:20:50;10.76;91.96
35085;SHT85;21267;51.032;6.998;2022-10-13T06:23:16;10.74;91.82
35085;SHT85;21267;51.032;6.998;2022-10-13T06:25:48;10.80;91.68
35085;SHT85;21267;51.032;6.998;2022-10-13T06:28:15;10.79;91.52
35085;SHT85;21267;51.032;6.998;2022-10-13T06:33:38;10.83;91.57
35085;SHT85;21267;51.032;6.998;2022-10-13T06:36:06;10.88;91.49
35085;SHT85;21267;51.032;6.998;2022-10-13T06:38:32;10.87;91.36
35085;SHT85;21267;51.032;6.998;2022-10-13T06:41:00;10.90;91.31
35085;SHT85;21267;51.032;6.998;2022-10-13T06:43:27;10.92;91.18
35085;SHT85;21267;51.032;6.998;2022-10-13T06:46:04;10.92;91.21
35085;SHT85;21267;51.032;6.998;2022-10-13T06:48:31;10.97;91.04
35085;SHT85;21267;51.032;6.998;2022-10-13T06:51:07;11.00;90.95
35085;SHT85;21267;51.032;6.998;2022-10-13T06:53:34;11.02;90.79
35085;SHT85;21267;51.032;6.998;2022-10-13T06:56:03;11.06;90.82
35085;SHT85;21267;51.032;6.998;2022-10-13T06:58:30;11.11;90.72
35085;SHT85;21267;51.032;6.998;2022-10-13T07:00:57;11.10;90.58
35085;SHT85;21267;51.032;6.998;2022-10-13T07:03:24;11.15;90.39
35085;SHT85;21267;51.032;6.998;2022-10-13T07:05:51;11.22;90.42
35085;SHT85;21267;51.032;6.998;2022-10-13T07:08:20;11.25;90.39
35085;SHT85;21267;51.032;6.998;2022-10-13T07:10:46;11.32;90.10
35085;SHT85;21267;51.032;6.998;2022-10-13T07:13:14;11.36;89.86
35085;SHT85;21267;51.032;6.998;2022-10-13T07:15:40;11.49;89.63
35085;SHT85;21267;51.032;6.998;2022-10-13T07:18:07;11.56;89.31
35085;SHT85;21267;51.032;6.998;2022-10-13T07:20:34;11.59;89.08
35085;SHT85;21267;51.032;6.998;2022-10-13T07:23:01;11.62;89.05
35085;SHT85;21267;51.032;6.998;2022-10-13T07:25:28;11.66;88.96
35085;SHT85;21267;51.032;6.998;2022-10-13T07:27:56;11.70;88.90
35085;SHT85;21267;51.032;6.998;2022-10-13T07:30:23;11.73;88.85
35085;SHT85;21267;51.032;6.998;2022-10-13T07:32:50;11.75;88.88
35085;SHT85;21267;51.032;6.998;2022-10-13T07:35:17;11.76;88.95
35085;SHT85;21267;51.032;6.998;2022-10-13T07:37:43;11.73;88.77
35085;SHT85;21267;51.032;6.998;2022-10-13T07:40:11;11.83;88.53
35085;SHT85;21267;51.032;6.998;2022-10-13T07:42:37;11.94;88.31
35085;SHT85;21267;51.032;6.998;2022-10-13T07:45:04;12.01;88.21
35085;SHT85;21267;51.032;6.998;2022-10-13T07:47:31;12.11;87.93
35085;SHT85;21267;51.032;6.998;2022-10-13T07:49:57;12.07;87.95
35085;SHT85;21267;51.032;6.998;2022-10-13T07:52:24;12.08;87.89
35085;SHT85;21267;51.032;6.998;2022-10-13T07:54:51;12.01;87.97
35085;SHT85;21267;51.032;6.998;2022-10-13T07:57:17;12.01;88.14
35085;SHT85;21267;51.032;6.998;2022-10-13T07:59:44;12.01;88.14
35085;SHT85;21267;51.032;6.998;2022-10-13T08:02:11;12.04;87.93
35085;SHT85;21267;51.032;6.998;2022-10-13T08:04:37;12.13;87.85
35085;SHT85;21267;51.032;6.998;2022-10-13T08:07:05;12.21;87.88
35085;SHT85;21267;51.032;6.998;2022-10-13T08:09:32;12.25;87.67
35085;SHT85;21267;51.032;6.998;2022-10-13T08:11:59;12.37;87.55
35085;SHT85;21267;51.032;6.998;2022-10-13T08:14:27;12.48;87.25
35085;SHT85;21267;51.032;6.998;2022-10-13T08:16:55;12.55;86.99
35085;SHT85;21267;51.032;6.998;2022-10-13T08:19:22;12.69;86.74
35085;SHT85;21267;51.032;6.998;2022-10-13T08:21:52;12.75;86.27
35085;SHT85;21267;51.032;6.998;2022-10-13T08:24:24;12.79;86.44
35085;SHT85;21267;51.032;6.998;2022-10-13T08:26:53;12.85;86.60
35085;SHT85;21267;51.032;6.998;2022-10-13T08:29:19;12.85;86.56
35085;SHT85;21267;51.032;6.998;2022-10-13T08:31:51;12.86;86.51
35085;SHT85;21267;51.032;6.998;2022-10-13T08:34:18;12.97;86.20
35085;SHT85;21267;51.032;6.998;2022-10-13T08:36:45;12.99;86.13
35085;SHT85;21267;51.032;6.998;2022-10-13T08:39:12;13.15;85.95
35085;SHT85;21267;51.032;6.998;2022-10-13T08:41:42;13.10;85.97
35085;SHT85;21267;51.032;6.998;2022-10-13T08:44:20;13.10;85.92
35085;SHT85;21267;51.032;6.998;2022-10-13T08:49:59;13.19;85.51
35085;SHT85;21267;51.032;6.998;2022-10-13T08:52:29;13.28;85.31
35085;SHT85;21267;51.032;6.998;2022-10-13T08:55:19;13.33;85.13
35085;SHT85;21267;51.032;6.998;2022-10-13T08:57:46;13.34;84.86
35085;SHT85;21267;51.032;6.998;2022-10-13T09:00:13;13.34;84.71
35085;SHT85;21267;51.032;6.998;2022-10-13T09:02:42;13.51;84.64
35085;SHT85;21267;51.032;6.998;2022-10-13T09:05:13;13.61;84.13
35085;SHT85;21267;51.032;6.998;2022-10-13T09:07:45;13.89;83.50
35085;SHT85;21267;51.032;6.998;2022-10-13T09:10:12;13.96;83.10
35085;SHT85;21267;51.032;6.998;2022-10-13T09:12:40;14.15;82.53
35085;SHT85;21267;51.032;6.998;2022-10-13T09:15:09;14.43;81.97
35085;SHT85;21267;51.032;6.998;2022-10-13T09:17:38;14.32;82.16
35085;SHT85;21267;51.032;6.998;2022-10-13T09:20:25;14.32;81.94
35085;SHT85;21267;51.032;6.998;2022-10-13T09:23:03;14.33;82.18
35085;SHT85;21267;51.032;6.998;2022-10-13T09:25:42;14.37;81.84
35085;SHT85;21267;51.032;6.998;2022-10-13T09:28:39;14.44;82.04
35085;SHT85;21267;51.032;6.998;2022-10-13T09:31:24;14.67;81.48
35085;SHT85;21267;51.032;6.998;2022-10-13T09:36:33;14.73;80.77
35085;SHT85;21267;51.032;6.998;2022-10-13T09:39:06;14.73;81.16
35085;SHT85;21267;51.032;6.998;2022-10-13T09:41:34;15.36;79.56
35085;SHT85;21267;51.032;6.998;2022-10-13T09:44:10;15.36;78.78
35085;SHT85;21267;51.032;6.998;2022-10-13T09:46:47;15.60;78.38
35085;SHT85;21267;51.032;6.998;2022-10-13T09:57:27;15.90;77.41
35085;SHT85;21267;51.032;6.998;2022-10-13T10:02:36;15.60;78.27
35085;SHT85;21267;51.032;6.998;2022-10-13T10:05:17;15.91;77.34
35085;SHT85;21267;51.032;6.998;2022-10-13T10:07:44;16.55;75.56
35085;SHT85;21267;51.032;6.998;2022-10-13T10:10:31;16.53;75.58
35085;SHT85;21267;51.032;6.998;2022-10-13T10:13:00;16.90;74.85
35085;SHT85;21267;51.032;6.998;2022-10-13T10:18:24;16.87;74.13
35085;SHT85;21267;51.032;6.998;2022-10-13T10:23:48;17.59;72.11
35085;SHT85;21267;51.032;6.998;2022-10-13T10:29:12;19.26;67.62
35085;SHT85;21267;51.032;6.998;2022-10-13T10:37:23;19.22;67.47
35085;SHT85;21267;51.032;6.998;2022-10-13T10:40:16;18.91;68.13
35085;SHT85;21267;51.032;6.998;2022-10-13T10:45:36;17.73;70.65
35085;SHT85;21267;51.032;6.998;2022-10-13T10:48:32;17.69;70.77
35085;SHT85;21267;51.032;6.998;2022-10-13T10:51:00;17.35;72.41
35085;SHT85;21267;51.032;6.998;2022-10-13T10:53:42;17.48;72.09
35085;SHT85;21267;51.032;6.998;2022-10-13T10:56:28;17.44;72.15
35085;SHT85;21267;51.032;6.998;2022-10-13T11:01:46;17.52;71.55
35085;SHT85;21267;51.032;6.998;2022-10-13T11:04:46;17.63;71.53
35085;SHT85;21267;51.032;6.998;2022-10-13T11:07:55;17.58;71.54
35085;SHT85;21267;51.032;6.998;2022-10-13T11:10:21;17.83;71.22
35085;SHT85;21267;51.032;6.998;2022-10-13T11:15:40;17.41;72.39
35085;SHT85;21267;51.032;6.998;2022-10-13T11:21:11;17.23;73.45
35085;SHT85;21267;51.032;6.998;2022-10-13T11:23:47;17.24;73.50
35085;SHT85;21267;51.032;6.998;2022-10-13T11:26:40;17.18;73.63
35085;SHT85;21267;51.032;6.998;2022-10-13T11:29:16;17.18;73.97
35085;SHT85;21267;51.032;6.998;2022-10-13T11:31:50;17.10;74.11
35085;SHT85;21267;51.032;6.998;2022-10-13T11:34:28;16.92;74.48
35085;SHT85;21267;51.032;6.998;2022-10-13T11:36:58;16.84;74.61
35085;SHT85;21267;51.032;6.998;2022-10-13T11:45:12;16.68;75.47
35085;SHT85;21267;51.032;6.998;2022-10-13T11:48:03;16.65;76.16
35085;SHT85;21267;51.032;6.998;2022-10-13T11:51:14;16.48;76.90
35085;SHT85;21267;51.032;6.998;2022-10-13T11:54:03;16.42;77.27
35085;SHT85;21267;51.032;6.998;2022-10-13T11:56:43;16.43;77.74
35085;SHT85;21267;51.032;6.998;2022-10-13T12:04:36;15.94;80.51
35085;SHT85;21267;51.032;6.998;2022-10-13T12:07:07;15.83;81.32
35085;SHT85;21267;51.032;6.998;2022-10-13T12:09:48;15.77;81.74
35085;SHT85;21267;51.032;6.998;2022-10-13T12:12:17;15.80;82.52
35085;SHT85;21267;51.032;6.998;2022-10-13T12:14:47;15.86;82.55
35085;SHT85;21267;51.032;6.998;2022-10-13T12:19:54;15.87;82.97
35085;SHT85;21267;51.032;6.998;2022-10-13T12:22:22;15.93;82.80
35085;SHT85;21267;51.032;6.998;2022-10-13T12:25:02;15.97;82.82
35085;SHT85;21267;51.032;6.998;2022-10-13T12:27:31;16.03;83.35
35085;SHT85;21267;51.032;6.998;2022-10-13T12:29:59;16.11;83.49
35085;SHT85;21267;51.032;6.998;2022-10-13T12:32:28;16.18;82.11
35085;SHT85;21267;51.032;6.998;2022-10-13T12:35:09;16.17;80.93
35085;SHT85;21267;51.032;6.998;2022-10-13T12:37:36;16.25;79.84
35085;SHT85;21267;51.032;6.998;2022-10-13T12:40:04;16.31;79.25
35085;SHT85;21267;51.032;6.998;2022-10-13T12:42:32;16.63;79.58
35085;SHT85;21267;51.032;6.998;2022-10-13T12:45:00;16.65;80.08
35085;SHT85;21267;51.032;6.998;2022-10-13T12:47:53;16.63;78.42
35085;SHT85;21267;51.032;6.998;2022-10-13T12:53:14;16.51;79.05
35085;SHT85;21267;51.032;6.998;2022-10-13T12:55:57;16.48;78.78
35085;SHT85;21267;51.032;6.998;2022-10-13T12:58:27;16.66;78.57
35085;SHT85;21267;51.032;6.998;2022-10-13T13:00:57;16.61;78.73
35085;SHT85;21267;51.032;6.998;2022-10-13T13:03:27;16.43;79.82
35085;SHT85;21267;51.032;6.998;2022-10-13T13:06:18;16.38;80.43
35085;SHT85;21267;51.032;6.998;2022-10-13T13:08:46;16.20;79.95
35085;SHT85;21267;51.032;6.998;2022-10-13T13:13:47;16.20;80.35
35085;SHT85;21267;51.032;6.998;2022-10-13T13:18:43;16.11;79.69
35085;SHT85;21267;51.032;6.998;2022-10-13T13:21:13;16.11;79.98
35085;SHT85;21267;51.032;6.998;2022-10-13T13:23:41;16.17;80.02
35085;SHT85;21267;51.032;6.998;2022-10-13T13:28:44;16.20;79.68
35085;SHT85;21267;51.032;6.998;2022-10-13T13:31:11;16.21;80.35
35085;SHT85;21267;51.032;6.998;2022-10-13T13:33:38;16.24;80.13
35085;SHT85;21267;51.032;6.998;2022-10-13T13:36:17;16.35;80.75
35085;SHT85;21267;51.032;6.998;2022-10-13T13:38:45;16.28;81.40
35085;SHT85;21267;51.032;6.998;2022-10-13T13:41:15;16.20;82.32
35085;SHT85;21267;51.032;6.998;2022-10-13T13:43:42;16.13;82.56
35085;SHT85;21267;51.032;6.998;2022-10-13T13:46:14;15.96;83.55
35085;SHT85;21267;51.032;6.998;2022-10-13T13:48:42;15.89;84.58
35085;SHT85;21267;51.032;6.998;2022-10-13T13:51:09;15.83;84.23
35085;SHT85;21267;51.032;6.998;2022-10-13T13:53:36;15.78;85.16
35085;SHT85;21267;51.032;6.998;2022-10-13T13:56:03;15.73;85.84
35085;SHT85;21267;51.032;6.998;2022-10-13T13:58:30;15.66;85.61
35085;SHT85;21267;51.032;6.998;2022-10-13T14:00:58;15.63;85.73
35085;SHT85;21267;51.032;6.998;2022-10-13T14:03:25;15.60;86.54
35085;SHT85;21267;51.032;6.998;2022-10-13T14:05:54;15.60;86.81
35085;SHT85;21267;51.032;6.998;2022-10-13T14:08:21;15.64;86.95
35085;SHT85;21267;51.032;6.998;2022-10-13T14:10:47;15.57;86.68
35085;SHT85;21267;51.032;6.998;2022-10-13T14:13:14;15.59;87.20
35085;SHT85;21267;51.032;6.998;2022-10-13T14:15:41;15.56;87.78
35085;SHT85;21267;51.032;6.998;2022-10-13T14:18:08;15.42;88.00
35085;SHT85;21267;51.032;6.998;2022-10-13T14:20:39;15.47;88.65
35085;SHT85;21267;51.032;6.998;2022-10-13T14:23:06;15.42;88.74
35085;SHT85;21267;51.032;6.998;2022-10-13T14:25:33;15.32;88.41
35085;SHT85;21267;51.032;6.998;2022-10-13T14:28:00;15.28;88.80
35085;SHT85;21267;51.032;6.998;2022-10-13T14:30:26;15.18;88.47
35085;SHT85;21267;51.032;6.998;2022-10-13T14:32:53;15.19;89.10
35085;SHT85;21267;51.032;6.998;2022-10-13T14:35:19;15.19;89.47
35085;SHT85;21267;51.032;6.998;2022-10-13T14:37:46;15.16;89.97
35085;SHT85;21267;51.032;6.998;2022-10-13T14:40:13;15.12;90.15
35085;SHT85;21267;51.032;6.998;2022-10-13T14:42:40;15.12;90.47
35085;SHT85;21267;51.032;6.998;2022-10-13T14:45:08;15.06;90.52
35085;SHT85;21267;51.032;6.998;2022-10-13T14:47:35;15.06;90.55
35085;SHT85;21267;51.032;6.998;2022-10-13T14:50:03;15.04;90.56
35085;SHT85;21267;51.032;6.998;2022-10-13T14:52:30;15.05;90.90
35085;SHT85;21267;51.032;6.998;2022-10-13T14:55:11;15.09;90.58
35085;SHT85;21267;51.032;6.998;2022-10-13T14:57:37;15.08;90.65
35085;SHT85;21267;51.032;6.998;2022-10-13T15:00:18;15.06;90.53
35085;SHT85;21267;51.032;6.998;2022-10-13T15:02:45;15.01;90.95
35085;SHT85;21267;51.032;6.998;2022-10-13T15:05:11;14.96;90.76
35085;SHT85;21267;51.032;6.998;2022-10-13T15:07:45;14.99;91.20
35085;SHT85;21267;51.032;6.998;2022-10-13T15:10:12;15.02;91.40
35085;SHT85;21267;51.032;6.998;2022-10-13T15:12:38;14.98;91.53
35085;SHT85;21267;51.032;6.998;2022-10-13T15:15:05;14.98;91.79
35085;SHT85;21267;51.032;6.998;2022-10-13T15:17:32;14.88;91.91
35085;SHT85;21267;51.032;6.998;2022-10-13T15:19:59;14.85;92.20
35085;SHT85;21267;51.032;6.998;2022-10-13T15:22:25;14.85;92.23
35085;SHT85;21267;51.032;6.998;2022-10-13T15:24:52;14.85;92.10
35085;SHT85;21267;51.032;6.998;2022-10-13T15:27:19;14.81;92.09
35085;SHT85;21267;51.032;6.998;2022-10-13T15:29:45;14.81;92.28
35085;SHT85;21267;51.032;6.998;2022-10-13T15:32:15;14.74;92.41
35085;SHT85;21267;51.032;6.998;2022-10-13T15:34:44;14.71;92.62
35085;SHT85;21267;51.032;6.998;2022-10-13T15:37:11;14.73;92.58
35085;SHT85;21267;51.032;6.998;2022-10-13T15:39:37;14.68;92.95
35085;SHT85;21267;51.032;6.998;2022-10-13T15:42:04;14.70;93.08
35085;SHT85;21267;51.032;6.998;2022-10-13T15:44:31;14.64;93.33
35085;SHT85;21267;51.032;6.998;2022-10-13T15:47:18;14.56;93.21
35085;SHT85;21267;51.032;6.998;2022-10-13T15:49:44;14.59;93.25
35085;SHT85;21267;51.032;6.998;2022-10-13T15:52:11;14.53;93.45
35085;SHT85;21267;51.032;6.998;2022-10-13T15:54:38;14.50;93.37
35085;SHT85;21267;51.032;6.998;2022-10-13T15:57:04;14.52;93.59
35085;SHT85;21267;51.032;6.998;2022-10-13T15:59:31;14.44;93.31
35085;SHT85;21267;51.032;6.998;2022-10-13T16:01:57;14.44;93.41
35085;SHT85;21267;51.032;6.998;2022-10-13T16:04:24;14.43;93.44
35085;SHT85;21267;51.032;6.998;2022-10-13T16:07:04;14.47;93.50
35085;SHT85;21267;51.032;6.998;2022-10-13T16:09:31;14.46;93.48
35085;SHT85;21267;51.032;6.998;2022-10-13T16:11:58;14.44;93.63
35085;SHT85;21267;51.032;6.998;2022-10-13T16:14:38;14.38;93.60
35085;SHT85;21267;51.032;6.998;2022-10-13T16:17:04;14.43;93.20
35085;SHT85;21267;51.032;6.998;2022-10-13T16:19:45;14.37;93.57
35085;SHT85;21267;51.032;6.998;2022-10-13T16:22:12;14.38;93.64
35085;SHT85;21267;51.032;6.998;2022-10-13T16:24:39;14.36;93.59
35085;SHT85;21267;51.032;6.998;2022-10-13T16:27:14;14.38;93.79
35085;SHT85;21267;51.032;6.998;2022-10-13T16:29:40;14.34;93.75
35085;SHT85;21267;51.032;6.998;2022-10-13T16:32:07;14.37;93.58
35085;SHT85;21267;51.032;6.998;2022-10-13T16:34:41;14.38;93.46
35085;SHT85;21267;51.032;6.998;2022-10-13T16:37:08;14.32;93.70
35085;SHT85;21267;51.032;6.998;2022-10-13T16:39:34;14.26;94.06
35085;SHT85;21267;51.032;6.998;2022-10-13T16:42:07;14.34;94.11
35085;SHT85;21267;51.032;6.998;2022-10-13T16:44:34;14.33;93.97
35085;SHT85;21267;51.032;6.998;2022-10-13T16:47:00;14.27;94.28
35085;SHT85;21267;51.032;6.998;2022-10-13T16:49:30;14.29;94.54
35085;SHT85;21267;51.032;6.998;2022-10-13T16:51:57;14.23;94.63
35085;SHT85;21267;51.032;6.998;2022-10-13T16:54:24;14.15;95.15
35085;SHT85;21267;51.032;6.998;2022-10-13T16:56:50;14.09;95.90
35085;SHT85;21267;51.032;6.998;2022-10-13T16:59:17;14.01;95.94
35085;SHT85;21267;51.032;6.998;2022-10-13T17:01:43;14.04;95.75
35085;SHT85;21267;51.032;6.998;2022-10-13T17:04:10;14.01;95.98
35085;SHT85;21267;51.032;6.998;2022-10-13T17:06:38;14.06;95.91
35085;SHT85;21267;51.032;6.998;2022-10-13T17:09:06;13.98;95.75
35085;SHT85;21267;51.032;6.998;2022-10-13T17:11:33;14.04;95.82
35085;SHT85;21267;51.032;6.998;2022-10-13T17:14:00;14.08;95.58
35085;SHT85;21267;51.032;6.998;2022-10-13T17:16:27;14.02;95.45
35085;SHT85;21267;51.032;6.998;2022-10-13T17:18:54;13.96;95.62
35085;SHT85;21267;51.032;6.998;2022-10-13T17:21:29;13.99;95.65
35085;SHT85;21267;51.032;6.998;2022-10-13T17:24:03;14.04;95.36
35085;SHT85;21267;51.032;6.998;2022-10-13T17:26:30;14.02;95.62